createdAt,value
2022-08-17T00:00:49.467Z,46.41
2022-08-17T00:05:47.887Z,47.20
2022-08-17T00:10:43.546Z,47.30
2022-08-17T00:15:37.206Z,47.91
2022-08-17T00:20:32.110Z,48.01
2022-08-17T00:25:35.220Z,47.36
2022-08-17T00:30:30.196Z,46.60
2022-08-17T00:35:45.141Z,46.36
2022-08-17T00:40:45.657Z,45.35
2022-08-17T00:45:39.800Z,45.28
2022-08-17T00:50:33.845Z,45.43
2022-08-17T00:55:29.363Z,45.48
2022-08-17T01:00:26.907Z,45.64
2022-08-17T01:05:25.607Z,45.08
2022-08-17T01:10:59.083Z,45.67
2022-08-17T01:15:42.352Z,45.13
2022-08-17T01:20:48.651Z,44.28
2022-08-17T01:25:42.648Z,44.19
2022-08-17T01:30:58.895Z,43.71
2022-08-17T01:35:48.502Z,43.39
2022-08-17T01:40:57.067Z,43.24
2022-08-17T01:46:02.665Z,43.11
2022-08-17T01:50:57.720Z,43.06
2022-08-17T01:55:58.872Z,44.24
2022-08-17T02:01:01.000Z,44.09
2022-08-17T02:05:56.467Z,44.21
2022-08-17T02:10:51.159Z,44.14
2022-08-17T02:15:45.205Z,43.92
2022-08-17T02:20:42.140Z,44.12
2022-08-17T02:25:37.685Z,44.16
2022-08-17T02:30:59.492Z,43.97
2022-08-17T02:35:44.407Z,44.49
2022-08-17T02:40:38.256Z,44.22
2022-08-17T02:45:32.057Z,44.18
2022-08-17T02:50:27.514Z,43.77
2022-08-17T02:55:28.060Z,43.90
2022-08-17T03:00:29.623Z,43.98
2022-08-17T03:05:24.569Z,44.04
2022-08-17T03:10:18.452Z,44.22
2022-08-17T03:15:20.432Z,44.16
2022-08-17T03:20:16.567Z,45.10
2022-08-17T03:25:11.280Z,45.07
2022-08-17T03:30:26.739Z,45.02
2022-08-17T03:35:24.212Z,44.94
2022-08-17T03:40:34.367Z,44.71
2022-08-17T03:45:54.869Z,43.52
2022-08-17T03:51:10.359Z,43.16
2022-08-17T03:56:27.253Z,42.78
2022-08-17T04:01:23.724Z,43.45
2022-08-17T04:06:17.907Z,44.39
2022-08-17T04:11:12.536Z,44.34
2022-08-17T04:16:06.067Z,44.51
2022-08-17T04:20:59.808Z,43.92
2022-08-17T04:25:54.400Z,43.36
2022-08-17T04:30:48.794Z,42.78
2022-08-17T04:35:49.374Z,42.46
2022-08-17T04:41:01.927Z,42.25
2022-08-17T04:46:20.569Z,42.78
2022-08-17T04:51:28.430Z,42.44
2022-08-17T04:56:21.943Z,42.39
2022-08-17T05:01:17.004Z,41.82
2022-08-17T05:06:17.379Z,41.96
2022-08-17T05:11:10.872Z,42.24
2022-08-17T05:16:06.560Z,42.14
2022-08-17T05:21:00.799Z,42.36
2022-08-17T05:25:57.295Z,42.67
2022-08-17T05:30:52.402Z,42.84
2022-08-17T05:35:48.633Z,43.08
2022-08-17T05:40:42.216Z,43.41
2022-08-17T05:45:55.362Z,43.68
2022-08-17T05:51:05.423Z,43.91
2022-08-17T05:56:37.361Z,44.44
2022-08-17T06:01:48.698Z,44.94
2022-08-17T06:06:50.406Z,46.02
2022-08-17T06:11:54.227Z,47.59
2022-08-17T06:17:02.747Z,49.49
2022-08-17T06:21:57.652Z,49.53
2022-08-17T06:26:53.139Z,50.09
2022-08-17T06:31:47.929Z,50.35
2022-08-17T06:37:27.793Z,52.79
2022-08-17T06:42:54.686Z,51.78
2022-08-17T06:48:00.441Z,51.59
2022-08-17T06:53:03.675Z,50.97
2022-08-17T06:58:05.864Z,51.35
2022-08-17T07:03:09.904Z,50.64
2022-08-17T07:08:09.276Z,50.80
2022-08-17T07:13:24.341Z,50.98
2022-08-17T07:18:18.438Z,51.27
2022-08-17T07:23:27.478Z,51.15
2022-08-17T07:28:24.291Z,50.67
2022-08-17T07:33:37.719Z,50.82
2022-08-17T07:38:51.540Z,50.87
2022-08-17T07:43:44.308Z,51.24
2022-08-17T07:48:39.669Z,50.76
2022-08-17T07:53:33.460Z,49.61
2022-08-17T07:58:27.274Z,50.50
2022-08-17T08:03:34.552Z,52.07
2022-08-17T08:08:42.598Z,51.51
2022-08-17T08:13:42.849Z,48.65
2022-08-17T08:18:55.446Z,48.54
2022-08-17T08:24:00.482Z,48.18
2022-08-17T08:29:02.160Z,48.51
2022-08-17T08:35:00.199Z,47.96
2022-08-17T08:39:31.730Z,48.21
2022-08-17T08:45:01.350Z,48.04
2022-08-17T08:50:40.409Z,48.55
2022-08-17T08:55:52.629Z,48.50
2022-08-17T09:00:51.891Z,48.41
2022-08-17T09:05:54.555Z,48.50
2022-08-17T09:11:10.899Z,48.41
2022-08-17T09:16:15.029Z,48.37
2022-08-17T09:21:33.691Z,48.50
2022-08-17T09:26:40.341Z,49.01
2022-08-17T09:31:49.310Z,48.40
2022-08-17T09:37:07.381Z,48.40
2022-08-17T09:42:11.737Z,48.51
2022-08-17T09:47:15.677Z,48.26
2022-08-17T09:52:17.850Z,48.12
2022-08-17T09:57:30.336Z,48.14
2022-08-17T10:02:55.619Z,47.93
2022-08-17T10:08:12.285Z,47.67
2022-08-17T10:13:30.325Z,48.27
2022-08-17T10:18:33.214Z,48.28
2022-08-17T10:23:49.081Z,47.94
2022-08-17T10:28:51.814Z,48.31
2022-08-17T10:34:14.928Z,48.32
2022-08-17T10:39:27.129Z,47.91
2022-08-17T10:44:40.170Z,48.15
2022-08-17T10:49:48.078Z,48.04
2022-08-17T10:54:46.581Z,47.91
2022-08-17T10:59:39.185Z,47.70
2022-08-17T11:04:31.642Z,47.49
2022-08-17T11:09:30.365Z,47.37
2022-08-17T11:14:54.799Z,47.82
2022-08-17T11:19:56.741Z,47.83
2022-08-17T11:25:23.564Z,48.28
2022-08-17T11:30:45.429Z,48.78
2022-08-17T11:35:49.171Z,49.01
2022-08-17T11:40:46.652Z,48.44
2022-08-17T11:46:21.317Z,48.66
2022-08-17T11:51:39.392Z,48.38
2022-08-17T11:56:43.349Z,48.12
2022-08-17T12:01:53.847Z,48.05
2022-08-17T12:06:55.316Z,48.06
2022-08-17T12:12:14.959Z,47.53
2022-08-17T12:17:20.875Z,47.64
2022-08-17T12:22:41.113Z,47.04
2022-08-17T12:27:54.818Z,46.85
2022-08-17T12:32:57.917Z,46.39
2022-08-17T12:37:56.319Z,46.41
2022-08-17T12:43:01.246Z,46.32
2022-08-17T12:48:08.528Z,46.09
2022-08-17T12:53:02.690Z,46.19
2022-08-17T12:58:00.854Z,45.99
2022-08-17T13:03:17.973Z,46.07
2022-08-17T13:08:16.531Z,46.00
2022-08-17T13:13:25.271Z,46.10
2022-08-17T13:18:30.356Z,46.47
2022-08-17T13:23:23.896Z,45.96
2022-08-17T13:28:32.446Z,46.04
2022-08-17T13:33:45.146Z,45.88
2022-08-17T13:38:48.036Z,45.87
2022-08-17T13:43:53.811Z,46.66
2022-08-17T13:48:57.728Z,46.49
2022-08-17T13:53:56.148Z,45.98
2022-08-17T13:58:54.028Z,45.83
2022-08-17T14:03:47.541Z,45.94
2022-08-17T14:08:45.784Z,45.69
2022-08-17T14:13:44.100Z,46.19
2022-08-17T14:18:56.688Z,45.68
2022-08-17T14:23:54.810Z,45.91
2022-08-17T14:28:56.433Z,46.34
2022-08-17T14:33:50.422Z,45.94
2022-08-17T14:38:44.879Z,46.09
2022-08-17T14:43:43.191Z,45.61
2022-08-17T14:48:39.112Z,46.33
2022-08-17T14:53:33.269Z,46.46
2022-08-17T14:58:27.099Z,46.08
2022-08-17T15:03:20.915Z,45.95
2022-08-17T15:08:16.802Z,45.93
2022-08-17T15:13:23.315Z,45.63
2022-08-17T15:18:17.236Z,45.80
2022-08-17T15:23:14.233Z,45.57
2022-08-17T15:28:07.847Z,45.80
2022-08-17T15:33:02.960Z,45.75
2022-08-17T15:38:10.754Z,45.78
2022-08-17T15:43:28.984Z,45.83
2022-08-17T15:48:23.972Z,45.58
2022-08-17T15:53:17.553Z,45.80
2022-08-17T15:58:11.961Z,45.74
2022-08-17T16:03:44.866Z,45.49
2022-08-17T16:08:21.372Z,45.66
2022-08-17T16:13:18.183Z,45.93
2022-08-17T16:18:13.398Z,46.05
2022-08-17T16:23:07.645Z,45.66
2022-08-17T16:28:03.573Z,46.31
2022-08-17T16:32:59.448Z,46.56
2022-08-17T16:37:55.090Z,46.58
2022-08-17T16:42:51.343Z,47.12
2022-08-17T16:47:44.502Z,48.14
2022-08-17T16:52:38.774Z,49.36
2022-08-17T16:57:32.691Z,50.79
2022-08-17T17:02:38.995Z,52.34
2022-08-17T17:07:52.371Z,52.74
2022-08-17T17:13:02.530Z,54.09
2022-08-17T17:18:06.936Z,52.92
2022-08-17T17:23:34.458Z,51.30
2022-08-17T17:28:56.511Z,48.91
2022-08-17T17:33:54.227Z,48.21
2022-08-17T17:39:00.257Z,47.14
2022-08-17T17:44:02.917Z,47.01
2022-08-17T17:48:55.796Z,46.70
2022-08-17T17:54:15.210Z,46.53
2022-08-17T17:59:07.603Z,46.33
2022-08-17T18:04:20.778Z,46.65
2022-08-17T18:09:20.279Z,46.78
2022-08-17T18:14:39.503Z,47.51
2022-08-17T18:19:33.268Z,48.05
2022-08-17T18:24:42.452Z,48.66
2022-08-17T18:29:45.079Z,50.35
2022-08-17T18:34:47.655Z,50.04
2022-08-17T18:39:42.441Z,50.34
2022-08-17T18:44:38.637Z,48.97
2022-08-17T18:49:32.629Z,49.14
2022-08-17T18:54:27.444Z,48.97
2022-08-17T18:59:49.140Z,48.98
2022-08-17T19:05:01.908Z,48.85
2022-08-17T19:10:17.846Z,49.24
2022-08-17T19:15:15.263Z,49.54
2022-08-17T19:20:23.640Z,49.46
2022-08-17T19:25:29.971Z,49.10
2022-08-17T19:30:24.376Z,50.34
2022-08-17T19:35:21.013Z,49.87
2022-08-17T19:40:52.752Z,49.92
2022-08-17T19:46:08.025Z,49.81
2022-08-17T19:51:34.935Z,50.31
2022-08-17T19:56:55.216Z,50.14
2022-08-17T20:02:28.578Z,50.48
2022-08-17T20:07:43.096Z,50.46
2022-08-17T20:12:39.549Z,49.82
2022-08-17T20:17:42.328Z,50.18
2022-08-17T20:23:15.250Z,49.45
2022-08-17T20:28:31.486Z,49.66
2022-08-17T20:33:30.923Z,49.57
2022-08-17T20:38:42.297Z,50.07
2022-08-17T20:43:35.515Z,49.91
2022-08-17T20:48:38.662Z,49.16
2022-08-17T20:53:50.155Z,50.56
2022-08-17T20:58:47.509Z,50.04
2022-08-17T21:03:50.273Z,50.25
2022-08-17T21:08:54.102Z,50.39
2022-08-17T21:13:56.820Z,50.75
2022-08-17T21:19:44.407Z,51.24
2022-08-17T21:25:22.462Z,51.30
2022-08-17T21:30:48.936Z,51.44
2022-08-17T21:36:00.966Z,50.38
2022-08-17T21:40:55.315Z,50.65
2022-08-17T21:46:13.205Z,51.02
2022-08-17T21:51:50.399Z,51.63
2022-08-17T21:56:48.468Z,50.69
2022-08-17T22:01:43.444Z,50.42
2022-08-17T22:06:42.042Z,51.38
2022-08-17T22:11:57.178Z,50.72
2022-08-17T22:17:24.693Z,50.30
2022-08-17T22:23:05.121Z,50.63
2022-08-17T22:28:05.718Z,51.54
2022-08-17T22:33:00.499Z,50.89
2022-08-17T22:37:54.548Z,51.70
2022-08-17T22:42:48.724Z,51.36
2022-08-17T22:47:52.305Z,50.67
2022-08-17T22:53:05.171Z,50.70
2022-08-17T22:58:16.213Z,50.42
2022-08-17T23:03:11.721Z,50.20
2022-08-17T23:08:05.145Z,49.71
2022-08-17T23:13:01.176Z,49.49
2022-08-17T23:17:54.801Z,49.54
2022-08-17T23:22:52.653Z,49.85
2022-08-17T23:27:49.914Z,50.47
2022-08-17T23:32:53.863Z,50.42
2022-08-17T23:37:47.733Z,50.82
2022-08-17T23:42:46.381Z,51.55
2022-08-17T23:47:45.404Z,51.03
2022-08-17T23:52:42.102Z,51.17
2022-08-17T23:57:36.257Z,51.43
